Date,TemperatureHighF,TemperatureAvgF,TemperatureLowF,DewpointHighF,DewpointAvgF,DewpointLowF,HumidityHigh,HumidityAvg,HumidityLow,PressureMaxIn,PressureMinIn,WindSpeedMaxMPH,WindSpeedAvgMPH,GustSpeedMaxMPH,PrecipitationSumIn
2013-4-1,58.3,51.9,49.3,40.6,36.1,30.6,71,55,36,28.47,28.35,6,0,6,0.00
2013-4-2,63.5,52.6,46.6,41.0,30.4,14.1,73,48,16,28.50,28.44,8,0,8,0.00
2013-4-3,66.0,54.8,45.1,36.6,26.3,12.4,58,36,13,28.47,28.26,10,1,10,0.00
2013-4-4,59.4,53.0,47.5,40.6,32.7,21.5,69,47,27,28.26,28.05,11,4,11,0.00
2013-4-5,54.7,48.7,46.4,38.8,33.7,26.5,73,57,37,28.29,28.17,14,5,14,0.00
2013-4-6,53.1,46.0,41.9,37.7,31.7,20.4,73,59,29,28.32,28.05,13,4,13,0.00
2013-4-7,47.5,41.9,36.3,31.6,28.0,24.8,72,58,41,28.26,27.94,23,5,23,0.00
2013-4-8,51.6,42.6,35.8,33.7,26.1,14.9,75,55,26,28.56,28.26,6,0,7,0.00
2013-4-9,59.9,47.7,37.0,30.4,23.9,13.8,73,43,17,28.61,28.53,7,1,7,0.00
2013-4-10,47.5,43.4,38.5,26.3,22.6,18.2,60,44,31,28.61,28.53,6,1,8,0.00
2013-4-11,53.8,43.2,36.1,32.9,20.1,5.0,72,44,16,28.61,28.44,6,1,6,0.00
2013-4-12,57.9,44.1,35.1,34.8,20.7,11.8,74,42,17,28.44,28.20,11,2,11,0.00
2013-4-13,50.4,42.6,35.8,30.8,17.5,8.0,70,38,19,28.38,28.35,8,2,8,0.00
2013-4-14,48.7,38.5,34.7,27.5,23.0,15.7,69,55,28,28.38,28.23,9,3,10,0.00
2013-4-15,49.6,40.3,35.1,31.1,20.8,6.5,73,49,19,28.44,28.23,8,1,8,0.00
2013-4-16,54.1,43.7,37.2,33.4,20.5,1.7,73,46,13,28.64,28.44,8,1,8,0.00
2013-4-17,56.3,44.9,33.8,25.0,17.3,3.1,65,37,13,28.73,28.64,7,1,7,0.00
2013-4-18,63.5,50.2,39.2,29.6,19.7,8.9,56,34,13,28.73,28.61,6,0,6,0.00
2013-4-19,51.8,47.4,45.1,38.8,35.6,29.3,75,64,50,28.61,28.50,13,3,13,0.00
2013-4-20,60.8,48.3,39.0,37.0,26.5,9.8,75,48,14,28.61,28.56,8,1,8,0.00
2013-4-21,56.5,45.7,39.0,32.3,26.8,20.2,72,50,26,28.59,28.53,6,1,6,0.00
2013-4-22,63.0,49.6,37.0,29.4,12.1,-0.2,70,29,11,28.64,28.56,9,3,9,0.00
2013-4-23,66.0,51.9,40.1,8.5,3.0,-2.5,16,13,10,28.61,28.44,13,3,13,0.00
2013-4-24,70.2,58.4,47.1,10.7,5.7,0.4,14,12,9,28.50,28.32,11,4,11,0.00
2013-4-25,73.2,59.2,45.9,13.8,8.0,2.5,27,13,9,28.47,28.32,9,1,9,0.00
2013-4-26,76.6,61.6,50.2,20.0,12.0,6.0,27,15,8,28.56,28.47,9,1,9,0.00
2013-4-27,74.1,59.2,47.8,20.3,7.9,2.5,33,13,8,28.56,28.53,6,1,7,0.00
2013-4-28,68.5,54.6,46.0,30.5,20.7,6.0,54,30,10,28.56,28.44,9,1,9,0.00
2013-4-29,57.2,47.2,37.6,38.8,19.3,-0.2,73,38,13,28.47,28.38,10,2,10,0.00
2013-4-30,55.2,42.2,31.6,18.4,8.3,-1.6,55,27,13,28.64,28.47,10,2,10,0.00